sensor_id;sensor_type;location;lat;lon;timestamp;temperature;humidity
1329;DHT22;658;48.820;9.354;2022-09-09T00:06:11;26.30;52.00
1329;DHT22;658;48.820;9.354;2022-09-09T00:10:29;26.30;52.00
1329;DHT22;658;48.820;9.354;2022-09-09T00:14:50;26.30;52.00
1329;DHT22;658;48.820;9.354;2022-09-09T00:23:17;26.20;52.10
1329;DHT22;658;48.820;9.354;2022-09-09T00:31:38;26.20;52.10
1329;DHT22;658;48.820;9.354;2022-09-09T00:35:48;26.20;52.20
1329;DHT22;658;48.820;9.354;2022-09-09T00:39:49;26.20;52.20
1329;DHT22;658;48.820;9.354;2022-09-09T00:43:57;26.10;52.20
1329;DHT22;658;48.820;9.354;2022-09-09T00:48:06;26.10;52.30
1329;DHT22;658;48.820;9.354;2022-09-09T00:52:32;26.10;52.30
1329;DHT22;658;48.820;9.354;2022-09-09T01:01:12;26.00;52.30
1329;DHT22;658;48.820;9.354;2022-09-09T01:09:58;26.00;52.40
1329;DHT22;658;48.820;9.354;2022-09-09T01:18:23;26.00;52.40
1329;DHT22;658;48.820;9.354;2022-09-09T01:22:43;26.00;52.50
1329;DHT22;658;48.820;9.354;2022-09-09T01:26:46;26.00;53.10
1329;DHT22;658;48.820;9.354;2022-09-09T01:30:48;26.00;52.50
1329;DHT22;658;48.820;9.354;2022-09-09T01:34:50;26.00;52.60
1329;DHT22;658;48.820;9.354;2022-09-09T01:38:52;25.90;52.50
1329;DHT22;658;48.820;9.354;2022-09-09T01:42:53;25.90;52.60
1329;DHT22;658;48.820;9.354;2022-09-09T01:46:54;25.90;52.60
1329;DHT22;658;48.820;9.354;2022-09-09T01:50:56;25.90;52.60
1329;DHT22;658;48.820;9.354;2022-09-09T01:54:56;25.90;52.60
1329;DHT22;658;48.820;9.354;2022-09-09T02:03:27;25.90;52.70
1329;DHT22;658;48.820;9.354;2022-09-09T02:07:57;25.90;52.80
1329;DHT22;658;48.820;9.354;2022-09-09T02:12:07;25.80;52.70
1329;DHT22;658;48.820;9.354;2022-09-09T02:20:15;25.80;52.80
1329;DHT22;658;48.820;9.354;2022-09-09T02:24:17;25.80;53.30
1329;DHT22;658;48.820;9.354;2022-09-09T02:28:19;25.80;52.90
1329;DHT22;658;48.820;9.354;2022-09-09T02:32:23;25.80;52.90
1329;DHT22;658;48.820;9.354;2022-09-09T02:36:27;25.80;52.80
1329;DHT22;658;48.820;9.354;2022-09-09T02:40:29;25.80;52.90
1329;DHT22;658;48.820;9.354;2022-09-09T02:44:30;25.80;52.90
1329;DHT22;658;48.820;9.354;2022-09-09T02:53:01;25.80;53.00
1329;DHT22;658;48.820;9.354;2022-09-09T02:57:16;25.80;53.00
1329;DHT22;658;48.820;9.354;2022-09-09T03:01:17;25.80;53.00
1329;DHT22;658;48.820;9.354;2022-09-09T03:05:18;25.70;53.00
1329;DHT22;658;48.820;9.354;2022-09-09T03:09:18;25.70;53.00
1329;DHT22;658;48.820;9.354;2022-09-09T03:13:19;25.70;53.10
1329;DHT22;658;48.820;9.354;2022-09-09T03:17:20;25.60;53.60
1329;DHT22;658;48.820;9.354;2022-09-09T03:21:20;25.70;53.10
1329;DHT22;658;48.820;9.354;2022-09-09T03:25:22;25.70;53.10
1329;DHT22;658;48.820;9.354;2022-09-09T03:29:24;25.60;53.10
1329;DHT22;658;48.820;9.354;2022-09-09T03:33:24;25.70;53.20
1329;DHT22;658;48.820;9.354;2022-09-09T03:37:25;25.60;53.10
1329;DHT22;658;48.820;9.354;2022-09-09T03:41:26;25.60;53.10
1329;DHT22;658;48.820;9.354;2022-09-09T03:45:26;25.60;53.20
1329;DHT22;658;48.820;9.354;2022-09-09T03:49:27;25.60;53.20
1329;DHT22;658;48.820;9.354;2022-09-09T03:53:29;25.60;53.20
1329;DHT22;658;48.820;9.354;2022-09-09T03:57:29;25.60;53.30
1329;DHT22;658;48.820;9.354;2022-09-09T04:01:30;25.60;53.30
1329;DHT22;658;48.820;9.354;2022-09-09T04:05:30;25.60;53.30
1329;DHT22;658;48.820;9.354;2022-09-09T04:09:33;25.60;53.30
1329;DHT22;658;48.820;9.354;2022-09-09T04:13:36;25.60;53.30
1329;DHT22;658;48.820;9.354;2022-09-09T04:17:40;25.50;53.30
1329;DHT22;658;48.820;9.354;2022-09-09T04:21:41;25.50;53.20
1329;DHT22;658;48.820;9.354;2022-09-09T04:25:46;25.50;53.30
1329;DHT22;658;48.820;9.354;2022-09-09T04:29:47;25.50;53.40
1329;DHT22;658;48.820;9.354;2022-09-09T04:33:48;25.50;53.40
1329;DHT22;658;48.820;9.354;2022-09-09T04:37:49;25.50;53.40
1329;DHT22;658;48.820;9.354;2022-09-09T04:41:50;25.40;53.40
1329;DHT22;658;48.820;9.354;2022-09-09T04:45:51;25.50;53.50
1329;DHT22;658;48.820;9.354;2022-09-09T04:49:51;25.50;53.50
1329;DHT22;658;48.820;9.354;2022-09-09T04:53:54;25.40;53.50
1329;DHT22;658;48.820;9.354;2022-09-09T04:57:55;25.40;53.40
1329;DHT22;658;48.820;9.354;2022-09-09T05:01:57;25.40;53.40
1329;DHT22;658;48.820;9.354;2022-09-09T05:06:08;25.40;53.40
1329;DHT22;658;48.820;9.354;2022-09-09T05:10:10;25.40;53.50
1329;DHT22;658;48.820;9.354;2022-09-09T05:14:11;25.30;53.50
1329;DHT22;658;48.820;9.354;2022-09-09T05:18:12;25.40;53.50
1329;DHT22;658;48.820;9.354;2022-09-09T05:22:13;25.40;53.50
1329;DHT22;658;48.820;9.354;2022-09-09T05:26:15;25.40;53.40
1329;DHT22;658;48.820;9.354;2022-09-09T05:30:16;25.40;53.40
1329;DHT22;658;48.820;9.354;2022-09-09T05:34:19;25.40;53.40
1329;DHT22;658;48.820;9.354;2022-09-09T05:38:21;25.40;53.30
1329;DHT22;658;48.820;9.354;2022-09-09T05:42:24;25.50;53.40
1329;DHT22;658;48.820;9.354;2022-09-09T05:46:25;25.40;53.30
1329;DHT22;658;48.820;9.354;2022-09-09T05:50:26;25.60;52.80
1329;DHT22;658;48.820;9.354;2022-09-09T05:54:26;25.90;52.30
1329;DHT22;658;48.820;9.354;2022-09-09T05:58:27;25.70;52.70
1329;DHT22;658;48.820;9.354;2022-09-09T06:02:28;25.60;53.00
1329;DHT22;658;48.820;9.354;2022-09-09T06:06:36;25.60;53.00
1329;DHT22;658;48.820;9.354;2022-09-09T06:10:37;25.50;53.10
1329;DHT22;658;48.820;9.354;2022-09-09T06:14:37;25.50;53.10
1329;DHT22;658;48.820;9.354;2022-09-09T06:18:39;25.60;53.10
1329;DHT22;658;48.820;9.354;2022-09-09T06:22:40;25.50;53.20
1329;DHT22;658;48.820;9.354;2022-09-09T06:26:41;25.50;53.30
1329;DHT22;658;48.820;9.354;2022-09-09T06:30:42;25.40;53.20
1329;DHT22;658;48.820;9.354;2022-09-09T06:34:42;25.40;53.30
1329;DHT22;658;48.820;9.354;2022-09-09T06:38:43;25.40;53.40
1329;DHT22;658;48.820;9.354;2022-09-09T06:42:44;25.40;53.40
1329;DHT22;658;48.820;9.354;2022-09-09T06:46:45;25.40;53.40
1329;DHT22;658;48.820;9.354;2022-09-09T06:50:48;25.50;53.30
1329;DHT22;658;48.820;9.354;2022-09-09T06:54:50;25.50;53.20
1329;DHT22;658;48.820;9.354;2022-09-09T06:58:52;25.50;53.20
1329;DHT22;658;48.820;9.354;2022-09-09T07:02:52;25.50;53.20
1329;DHT22;658;48.820;9.354;2022-09-09T07:06:53;25.50;53.30
1329;DHT22;658;48.820;9.354;2022-09-09T07:10:54;25.50;53.40
1329;DHT22;658;48.820;9.354;2022-09-09T07:14:54;25.50;53.20
1329;DHT22;658;48.820;9.354;2022-09-09T07:18:55;25.50;53.30
1329;DHT22;658;48.820;9.354;2022-09-09T07:22:58;25.50;53.20
1329;DHT22;658;48.820;9.354;2022-09-09T07:26:59;25.40;53.70
1329;DHT22;658;48.820;9.354;2022-09-09T07:31:01;25.50;53.20
1329;DHT22;658;48.820;9.354;2022-09-09T07:35:05;25.50;53.20
1329;DHT22;658;48.820;9.354;2022-09-09T07:39:11;25.50;53.20
1329;DHT22;658;48.820;9.354;2022-09-09T07:43:13;25.50;53.30
1329;DHT22;658;48.820;9.354;2022-09-09T07:47:15;25.50;53.30
1329;DHT22;658;48.820;9.354;2022-09-09T07:51:17;25.50;53.30
1329;DHT22;658;48.820;9.354;2022-09-09T07:55:20;25.50;53.40
1329;DHT22;658;48.820;9.354;2022-09-09T07:59:20;25.50;53.60
1329;DHT22;658;48.820;9.354;2022-09-09T08:03:21;25.50;53.50
1329;DHT22;658;48.820;9.354;2022-09-09T08:07:22;25.60;53.60
1329;DHT22;658;48.820;9.354;2022-09-09T08:11:25;25.60;53.60
1329;DHT22;658;48.820;9.354;2022-09-09T08:15:26;25.60;53.50
1329;DHT22;658;48.820;9.354;2022-09-09T08:19:26;25.60;53.40
1329;DHT22;658;48.820;9.354;2022-09-09T08:23:30;25.70;53.40
1329;DHT22;658;48.820;9.354;2022-09-09T08:27:30;25.70;53.40
1329;DHT22;658;48.820;9.354;2022-09-09T08:31:35;25.70;53.60
1329;DHT22;658;48.820;9.354;2022-09-09T08:35:36;25.70;53.50
1329;DHT22;658;48.820;9.354;2022-09-09T08:39:38;25.80;53.40
1329;DHT22;658;48.820;9.354;2022-09-09T08:43:39;25.80;53.20
1329;DHT22;658;48.820;9.354;2022-09-09T08:51:55;25.90;53.20
1329;DHT22;658;48.820;9.354;2022-09-09T08:55:58;25.90;53.20
1329;DHT22;658;48.820;9.354;2022-09-09T08:59:59;25.90;53.30
1329;DHT22;658;48.820;9.354;2022-09-09T09:04:26;26.00;53.20
1329;DHT22;658;48.820;9.354;2022-09-09T09:17:25;26.10;53.00
1329;DHT22;658;48.820;9.354;2022-09-09T09:21:48;26.10;53.00
1329;DHT22;658;48.820;9.354;2022-09-09T09:25:53;26.20;53.00
1329;DHT22;658;48.820;9.354;2022-09-09T09:29:56;26.10;53.00
1329;DHT22;658;48.820;9.354;2022-09-09T09:33:58;26.20;53.00
1329;DHT22;658;48.820;9.354;2022-09-09T09:37:59;26.20;53.00
1329;DHT22;658;48.820;9.354;2022-09-09T09:42:09;26.20;53.10
1329;DHT22;658;48.820;9.354;2022-09-09T09:46:20;26.10;52.90
1329;DHT22;658;48.820;9.354;2022-09-09T09:50:23;26.20;53.00
1329;DHT22;658;48.820;9.354;2022-09-09T09:54:41;26.20;52.90
1329;DHT22;658;48.820;9.354;2022-09-09T10:02:47;26.20;52.80
1329;DHT22;658;48.820;9.354;2022-09-09T10:06:48;26.30;52.70
1329;DHT22;658;48.820;9.354;2022-09-09T10:19:15;26.80;51.90
1329;DHT22;658;48.820;9.354;2022-09-09T10:36:25;27.10;51.00
1329;DHT22;658;48.820;9.354;2022-09-09T10:40:39;27.20;50.90
1329;DHT22;658;48.820;9.354;2022-09-09T10:49:15;27.30;50.70
1329;DHT22;658;48.820;9.354;2022-09-09T10:53:45;27.40;50.60
1329;DHT22;658;48.820;9.354;2022-09-09T10:57:52;27.40;50.50
1329;DHT22;658;48.820;9.354;2022-09-09T11:10:02;27.60;50.20
1329;DHT22;658;48.820;9.354;2022-09-09T11:18:19;27.60;50.30
1329;DHT22;658;48.820;9.354;2022-09-09T11:22:37;27.40;50.40
1329;DHT22;658;48.820;9.354;2022-09-09T11:26:57;27.30;50.50
1329;DHT22;658;48.820;9.354;2022-09-09T11:40:09;27.20;50.80
1329;DHT22;658;48.820;9.354;2022-09-09T11:44:25;27.10;50.90
1329;DHT22;658;48.820;9.354;2022-09-09T11:48:35;27.10;51.10
1329;DHT22;658;48.820;9.354;2022-09-09T11:52:39;27.10;51.00
1329;DHT22;658;48.820;9.354;2022-09-09T11:56:44;27.00;51.10
1329;DHT22;658;48.820;9.354;2022-09-09T12:00:48;27.00;51.20
1329;DHT22;658;48.820;9.354;2022-09-09T12:13:27;26.90;51.30
1329;DHT22;658;48.820;9.354;2022-09-09T12:17:30;26.90;51.30
1329;DHT22;658;48.820;9.354;2022-09-09T12:21:46;26.90;51.30
1329;DHT22;658;48.820;9.354;2022-09-09T12:30:08;26.90;51.50
1329;DHT22;658;48.820;9.354;2022-09-09T12:34:27;26.90;51.50
1329;DHT22;658;48.820;9.354;2022-09-09T12:38:34;26.80;51.60
1329;DHT22;658;48.820;9.354;2022-09-09T12:42:46;26.80;51.70
1329;DHT22;658;48.820;9.354;2022-09-09T12:46:46;26.80;51.70
1329;DHT22;658;48.820;9.354;2022-09-09T12:50:51;26.80;51.60
1329;DHT22;658;48.820;9.354;2022-09-09T12:54:53;26.90;51.70
1329;DHT22;658;48.820;9.354;2022-09-09T12:58:55;26.80;51.60
1329;DHT22;658;48.820;9.354;2022-09-09T13:02:58;26.90;51.60
1329;DHT22;658;48.820;9.354;2022-09-09T13:07:07;26.80;51.60
1329;DHT22;658;48.820;9.354;2022-09-09T13:11:26;26.80;51.60
1329;DHT22;658;48.820;9.354;2022-09-09T13:15:29;26.80;51.70
1329;DHT22;658;48.820;9.354;2022-09-09T13:19:36;26.80;51.70
1329;DHT22;658;48.820;9.354;2022-09-09T13:23:37;26.80;51.70
1329;DHT22;658;48.820;9.354;2022-09-09T13:27:50;26.80;51.80
1329;DHT22;658;48.820;9.354;2022-09-09T13:31:53;26.80;52.30
1329;DHT22;658;48.820;9.354;2022-09-09T13:36:07;26.80;51.90
1329;DHT22;658;48.820;9.354;2022-09-09T13:40:19;26.80;51.80
1329;DHT22;658;48.820;9.354;2022-09-09T13:44:26;26.80;51.70
1329;DHT22;658;48.820;9.354;2022-09-09T13:48:27;26.80;51.60
1329;DHT22;658;48.820;9.354;2022-09-09T13:52:29;26.80;51.60
1329;DHT22;658;48.820;9.354;2022-09-09T13:56:32;26.90;51.40
1329;DHT22;658;48.820;9.354;2022-09-09T14:00:34;26.90;51.30
1329;DHT22;658;48.820;9.354;2022-09-09T14:04:35;26.90;51.20
1329;DHT22;658;48.820;9.354;2022-09-09T14:08:36;26.90;51.20
1329;DHT22;658;48.820;9.354;2022-09-09T14:12:37;26.90;51.20
1329;DHT22;658;48.820;9.354;2022-09-09T14:16:38;26.90;51.10
1329;DHT22;658;48.820;9.354;2022-09-09T14:20:39;26.80;51.20
1329;DHT22;658;48.820;9.354;2022-09-09T14:24:39;26.90;51.10
1329;DHT22;658;48.820;9.354;2022-09-09T14:28:41;26.90;51.00
1329;DHT22;658;48.820;9.354;2022-09-09T14:32:41;26.90;50.90
1329;DHT22;658;48.820;9.354;2022-09-09T14:36:42;26.90;50.70
1329;DHT22;658;48.820;9.354;2022-09-09T14:40:45;26.90;50.80
1329;DHT22;658;48.820;9.354;2022-09-09T14:44:47;26.90;51.00
1329;DHT22;658;48.820;9.354;2022-09-09T14:48:48;27.00;50.80
1329;DHT22;658;48.820;9.354;2022-09-09T14:52:48;27.20;50.60
1329;DHT22;658;48.820;9.354;2022-09-09T14:56:49;27.30;50.50
1329;DHT22;658;48.820;9.354;2022-09-09T15:00:50;27.40;50.20
1329;DHT22;658;48.820;9.354;2022-09-09T15:04:50;27.50;49.90
1329;DHT22;658;48.820;9.354;2022-09-09T15:08:53;27.60;49.90
1329;DHT22;658;48.820;9.354;2022-09-09T15:12:54;27.70;49.70
1329;DHT22;658;48.820;9.354;2022-09-09T15:16:54;27.60;49.70
1329;DHT22;658;48.820;9.354;2022-09-09T15:20:55;27.60;49.80
1329;DHT22;658;48.820;9.354;2022-09-09T15:24:56;27.60;49.90
1329;DHT22;658;48.820;9.354;2022-09-09T15:28:57;27.60;47.50
1329;DHT22;658;48.820;9.354;2022-09-09T15:32:59;27.40;44.60
1329;DHT22;658;48.820;9.354;2022-09-09T15:37:00;27.20;41.70
1329;DHT22;658;48.820;9.354;2022-09-09T15:41:00;27.00;41.10
1329;DHT22;658;48.820;9.354;2022-09-09T15:45:01;26.90;40.90
1329;DHT22;658;48.820;9.354;2022-09-09T15:49:11;26.80;41.30
1329;DHT22;658;48.820;9.354;2022-09-09T15:53:12;26.80;41.80
1329;DHT22;658;48.820;9.354;2022-09-09T15:57:13;26.90;41.90
1329;DHT22;658;48.820;9.354;2022-09-09T16:01:14;27.00;41.70
1329;DHT22;658;48.820;9.354;2022-09-09T16:05:16;27.00;42.20
1329;DHT22;658;48.820;9.354;2022-09-09T16:09:16;27.00;42.40
1329;DHT22;658;48.820;9.354;2022-09-09T16:13:17;27.00;42.40
1329;DHT22;658;48.820;9.354;2022-09-09T16:17:18;27.00;43.00
1329;DHT22;658;48.820;9.354;2022-09-09T16:21:31;27.00;43.20
1329;DHT22;658;48.820;9.354;2022-09-09T16:25:32;27.10;43.60
1329;DHT22;658;48.820;9.354;2022-09-09T16:29:33;27.00;43.80
1329;DHT22;658;48.820;9.354;2022-09-09T16:33:34;27.00;44.20
1329;DHT22;658;48.820;9.354;2022-09-09T16:37:34;27.00;44.60
1329;DHT22;658;48.820;9.354;2022-09-09T16:41:36;26.90;44.90
1329;DHT22;658;48.820;9.354;2022-09-09T16:45:45;26.90;45.20
1329;DHT22;658;48.820;9.354;2022-09-09T16:49:45;26.80;45.50
1329;DHT22;658;48.820;9.354;2022-09-09T16:53:46;26.80;45.70
1329;DHT22;658;48.820;9.354;2022-09-09T16:57:47;26.80;46.10
1329;DHT22;658;48.820;9.354;2022-09-09T17:01:51;26.80;46.20
1329;DHT22;658;48.820;9.354;2022-09-09T17:05:52;26.70;46.40
1329;DHT22;658;48.820;9.354;2022-09-09T17:09:53;26.70;46.60
1329;DHT22;658;48.820;9.354;2022-09-09T17:13:55;26.70;46.80
1329;DHT22;658;48.820;9.354;2022-09-09T17:17:55;26.60;46.90
1329;DHT22;658;48.820;9.354;2022-09-09T17:21:56;26.60;47.10
1329;DHT22;658;48.820;9.354;2022-09-09T17:26:00;26.60;47.20
1329;DHT22;658;48.820;9.354;2022-09-09T17:30:01;26.50;47.30
1329;DHT22;658;48.820;9.354;2022-09-09T17:34:03;26.50;47.50
1329;DHT22;658;48.820;9.354;2022-09-09T17:38:05;26.50;47.60
1329;DHT22;658;48.820;9.354;2022-09-09T17:42:05;26.50;47.60
1329;DHT22;658;48.820;9.354;2022-09-09T17:46:14;26.50;47.70
1329;DHT22;658;48.820;9.354;2022-09-09T17:50:15;26.50;47.80
1329;DHT22;658;48.820;9.354;2022-09-09T17:54:18;26.40;47.80
1329;DHT22;658;48.820;9.354;2022-09-09T17:58:19;26.30;47.90
1329;DHT22;658;48.820;9.354;2022-09-09T18:02:21;26.30;47.90
1329;DHT22;658;48.820;9.354;2022-09-09T18:06:24;26.30;47.90
1329;DHT22;658;48.820;9.354;2022-09-09T18:10:27;26.30;47.90
1329;DHT22;658;48.820;9.354;2022-09-09T18:14:30;26.30;47.90
1329;DHT22;658;48.820;9.354;2022-09-09T18:18:31;26.30;47.90
1329;DHT22;658;48.820;9.354;2022-09-09T18:22:32;26.30;48.00
1329;DHT22;658;48.820;9.354;2022-09-09T18:26:33;26.30;48.00
1329;DHT22;658;48.820;9.354;2022-09-09T18:30:38;26.30;47.80
1329;DHT22;658;48.820;9.354;2022-09-09T18:34:39;26.30;47.80
1329;DHT22;658;48.820;9.354;2022-09-09T18:38:41;26.30;47.90
1329;DHT22;658;48.820;9.354;2022-09-09T18:42:41;26.30;47.80
1329;DHT22;658;48.820;9.354;2022-09-09T18:46:43;26.30;47.90
1329;DHT22;658;48.820;9.354;2022-09-09T18:50:43;26.30;48.00
1329;DHT22;658;48.820;9.354;2022-09-09T18:54:44;26.30;48.00
1329;DHT22;658;48.820;9.354;2022-09-09T18:58:45;26.30;48.10
1329;DHT22;658;48.820;9.354;2022-09-09T19:02:48;26.30;48.10
1329;DHT22;658;48.820;9.354;2022-09-09T19:06:52;26.20;48.20
1329;DHT22;658;48.820;9.354;2022-09-09T19:11:04;26.20;48.30
1329;DHT22;658;48.820;9.354;2022-09-09T19:15:05;26.20;48.30
1329;DHT22;658;48.820;9.354;2022-09-09T19:19:21;26.20;48.30
1329;DHT22;658;48.820;9.354;2022-09-09T19:23:22;26.20;48.50
1329;DHT22;658;48.820;9.354;2022-09-09T19:27:22;26.20;48.50
1329;DHT22;658;48.820;9.354;2022-09-09T19:31:23;26.10;48.50
1329;DHT22;658;48.820;9.354;2022-09-09T19:35:24;26.20;48.60
1329;DHT22;658;48.820;9.354;2022-09-09T19:39:24;26.10;48.60
1329;DHT22;658;48.820;9.354;2022-09-09T19:43:25;26.10;48.70
1329;DHT22;658;48.820;9.354;2022-09-09T19:47:26;26.10;48.70
1329;DHT22;658;48.820;9.354;2022-09-09T19:51:29;26.10;48.80
1329;DHT22;658;48.820;9.354;2022-09-09T19:55:29;26.10;48.80
1329;DHT22;658;48.820;9.354;2022-09-09T19:59:31;26.10;48.90
1329;DHT22;658;48.820;9.354;2022-09-09T20:03:33;26.00;48.90
1329;DHT22;658;48.820;9.354;2022-09-09T20:07:34;26.00;48.90
1329;DHT22;658;48.820;9.354;2022-09-09T20:11:34;26.00;49.00
1329;DHT22;658;48.820;9.354;2022-09-09T20:15:37;26.00;49.00
1329;DHT22;658;48.820;9.354;2022-09-09T20:19:38;26.00;49.10
1329;DHT22;658;48.820;9.354;2022-09-09T20:23:39;26.00;49.10
1329;DHT22;658;48.820;9.354;2022-09-09T20:27:39;26.00;49.20
1329;DHT22;658;48.820;9.354;2022-09-09T20:31:41;25.90;49.20
1329;DHT22;658;48.820;9.354;2022-09-09T20:35:42;25.90;49.20
1329;DHT22;658;48.820;9.354;2022-09-09T20:39:43;26.00;49.30
1329;DHT22;658;48.820;9.354;2022-09-09T20:43:47;25.90;49.30
1329;DHT22;658;48.820;9.354;2022-09-09T20:47:48;25.90;49.40
1329;DHT22;658;48.820;9.354;2022-09-09T20:51:50;25.90;49.50
1329;DHT22;658;48.820;9.354;2022-09-09T20:55:51;25.90;49.50
1329;DHT22;658;48.820;9.354;2022-09-09T20:59:52;25.90;49.60
1329;DHT22;658;48.820;9.354;2022-09-09T21:03:53;25.90;49.60
1329;DHT22;658;48.820;9.354;2022-09-09T21:07:53;25.90;49.70
1329;DHT22;658;48.820;9.354;2022-09-09T21:11:56;25.90;49.80
1329;DHT22;658;48.820;9.354;2022-09-09T21:15:57;25.90;49.80
1329;DHT22;658;48.820;9.354;2022-09-09T21:19:57;25.80;49.80
1329;DHT22;658;48.820;9.354;2022-09-09T21:23:58;25.80;49.80
1329;DHT22;658;48.820;9.354;2022-09-09T21:27:59;25.90;49.90
1329;DHT22;658;48.820;9.354;2022-09-09T21:32:00;25.90;49.90
1329;DHT22;658;48.820;9.354;2022-09-09T21:36:05;25.80;49.90
1329;DHT22;658;48.820;9.354;2022-09-09T21:40:06;25.80;50.00
1329;DHT22;658;48.820;9.354;2022-09-09T21:44:07;25.80;50.00
1329;DHT22;658;48.820;9.354;2022-09-09T21:48:11;25.80;50.00
1329;DHT22;658;48.820;9.354;2022-09-09T21:52:12;25.80;50.10
1329;DHT22;658;48.820;9.354;2022-09-09T21:56:17;25.80;50.00
1329;DHT22;658;48.820;9.354;2022-09-09T22:00:18;25.70;50.10
1329;DHT22;658;48.820;9.354;2022-09-09T22:04:19;25.80;50.10
1329;DHT22;658;48.820;9.354;2022-09-09T22:08:20;25.70;50.10
1329;DHT22;658;48.820;9.354;2022-09-09T22:12:20;25.70;50.20
1329;DHT22;658;48.820;9.354;2022-09-09T22:16:21;25.70;50.20
1329;DHT22;658;48.820;9.354;2022-09-09T22:20:22;25.70;50.30
1329;DHT22;658;48.820;9.354;2022-09-09T22:24:23;25.70;50.30
1329;DHT22;658;48.820;9.354;2022-09-09T22:28:26;25.70;50.30
1329;DHT22;658;48.820;9.354;2022-09-09T22:32:29;25.70;50.30
1329;DHT22;658;48.820;9.354;2022-09-09T22:36:30;25.70;50.40
1329;DHT22;658;48.820;9.354;2022-09-09T22:40:34;25.70;51.00
1329;DHT22;658;48.820;9.354;2022-09-09T22:44:35;25.60;50.40
1329;DHT22;658;48.820;9.354;2022-09-09T22:48:36;25.60;50.50
1329;DHT22;658;48.820;9.354;2022-09-09T22:52:37;25.60;50.40
1329;DHT22;658;48.820;9.354;2022-09-09T22:56:38;25.60;50.50
1329;DHT22;658;48.820;9.354;2022-09-09T23:00:39;25.60;50.50
1329;DHT22;658;48.820;9.354;2022-09-09T23:04:41;25.60;50.60
1329;DHT22;658;48.820;9.354;2022-09-09T23:08:41;25.60;50.60
1329;DHT22;658;48.820;9.354;2022-09-09T23:12:42;25.60;50.60
1329;DHT22;658;48.820;9.354;2022-09-09T23:16:44;25.60;50.60
1329;DHT22;658;48.820;9.354;2022-09-09T23:20:44;25.60;50.70
1329;DHT22;658;48.820;9.354;2022-09-09T23:24:46;25.60;50.70
1329;DHT22;658;48.820;9.354;2022-09-09T23:28:48;25.60;50.70
1329;DHT22;658;48.820;9.354;2022-09-09T23:32:49;25.60;50.70
1329;DHT22;658;48.820;9.354;2022-09-09T23:36:50;25.60;50.70
1329;DHT22;658;48.820;9.354;2022-09-09T23:40:50;25.50;50.70
1329;DHT22;658;48.820;9.354;2022-09-09T23:44:51;25.60;50.80
1329;DHT22;658;48.820;9.354;2022-09-09T23:48:52;25.50;50.80
1329;DHT22;658;48.820;9.354;2022-09-09T23:52:53;25.60;50.80
1329;DHT22;658;48.820;9.354;2022-09-09T23:56:54;25.50;50.80
